Flight Track Log - Related Links

Times and Time Zones

All times are in EDT time to prevent confusion due to time zone crossing. See the FDX1378 flight status page for this flight to view local times or setup timezone preferences in your user account.

Time Position Orientation Groundspeed Altitude Reporting Facility
EDT Latitude Longitude Course Direction KTS MPH feet Rate Location/Type
Mon 09:46:48 PM 42.9333 -78.7333 241° Southwest 144 166 1,600  Level Buffalo TRACON
Mon 09:48:00 PM 42.9000 -78.8167 259° West 204 235 3,800 2,510 Climbing Buffalo TRACON
Mon 09:50:47 PM 42.8611 -79.0906 258° West 264 304 11,600 2,787 Climbing Cleveland Center
Mon 09:51:59 PM 42.8419 -79.2183 258° West 328 377 14,900 3,045 Climbing Cleveland Center
Mon 09:52:59 PM 42.8186 -79.3633 257° West 358 412 18,300 3,000 Climbing Cleveland Center
Mon 09:53:59 PM 42.7931 -79.5167 259° West 375 432 20,900 2,450 Climbing Cleveland Center
Mon 09:54:59 PM 42.7714 -79.6639 255° West 382 440 23,200 2,250 Climbing Cleveland Center
Mon 09:55:59 PM 42.7431 -79.8114 257° West 397 457 25,400 2,100 Climbing Cleveland Center
Mon 09:56:59 PM 42.7169 -79.9614 250° West 403 464 27,400 1,800 Climbing Cleveland Center
Mon 09:57:59 PM 42.6761 -80.1117 242° Southwest 419 482 29,000 1,850 Climbing Cleveland Center
Mon 09:58:59 PM 42.6203 -80.2531 240° Southwest 430 495 31,100 1,500 Climbing Cleveland Center
Mon 09:59:59 PM 42.5622 -80.3914 241° Southwest 430 495 32,000 409 Climbing Cleveland Center
Mon 10:01:11 PM 42.4956 -80.5522 241° Southwest 424 488 32,000  Level Cleveland Center
Mon 10:02:11 PM 42.4394 -80.6900 240° Southwest 424 488 32,000  Level Cleveland Center
Mon 10:03:11 PM 42.3808 -80.8278 240° Southwest 424 488 32,000  Level Cleveland Center
Mon 10:04:11 PM 42.3219 -80.9650 239° Southwest 424 488 32,000 650 Level Cleveland Center
Mon 10:05:11 PM 42.2631 -81.0994 240° Southwest 424 488 33,300 1,350 Climbing Cleveland Center
Mon 10:06:11 PM 42.2061 -81.2333 242° Southwest 424 488 34,700 1,350 Climbing Cleveland Center
Mon 10:07:11 PM 42.1511 -81.3700 239° Southwest 424 488 36,000 650 Climbing Cleveland Center
Mon 10:08:11 PM 42.0917 -81.5036 239° Southwest 418 481 36,000  Level Cleveland Center
Mon 10:09:11 PM 42.0344 -81.6342 240° Southwest 418 481 36,000  Level Cleveland Center
Mon 10:10:11 PM 41.9767 -81.7703 239° Southwest 418 481 36,000  Level Cleveland Center
Mon 10:11:23 PM 41.9169 -81.9031 240° Southwest 423 487 36,000  Level Cleveland Center
Mon 10:12:23 PM 41.8483 -82.0606 239° Southwest 423 487 36,000 -50 Level Cleveland Center
Mon 10:13:23 PM 41.7903 -82.1900 240° Southwest 417 480 35,900  Descending Cleveland Center
Mon 10:14:23 PM 41.7342 -82.3222 238° Southwest 417 480 36,000 50 Climbing Cleveland Center
Mon 10:15:23 PM 41.6781 -82.4431 240° Southwest 417 480 36,000  Level Cleveland Center
Mon 10:16:23 PM 41.6131 -82.5911 240° Southwest 424 488 36,000  Level Cleveland Center
Mon 10:17:23 PM 41.5631 -82.7061 239° Southwest 418 481 36,000  Level Cleveland Center
Mon 10:21:16 PM 41.3258 -83.2256 237° Southwest 415 478 36,000  Level Indianapolis Center
Mon 10:22:16 PM 41.2697 -83.3417 240° Southwest 415 478 36,000  Level Indianapolis Center
Mon 10:23:16 PM 41.2136 -83.4714 239° Southwest 415 478 36,000  Level Indianapolis Center
Mon 10:24:16 PM 41.1553 -83.5983 237° Southwest 415 478 36,000  Level Indianapolis Center
Mon 10:25:16 PM 41.0947 -83.7222 240° Southwest 410 472 36,000  Level Indianapolis Center
Mon 10:26:16 PM 41.0300 -83.8678 233° Southwest 410 472 36,000  Level Indianapolis Center
Mon 10:27:16 PM 40.9631 -83.9858 221° Southwest 417 480 36,000 -50 Level Indianapolis Center
Mon 10:28:16 PM 40.8772 -84.0839 222° Southwest 406 467 35,900  Descending Indianapolis Center
Mon 10:29:16 PM 40.7911 -84.1847 225° Southwest 411 473 36,000 50 Climbing Indianapolis Center
Mon 10:30:16 PM 40.7094 -84.2908 226° Southwest 417 480 36,000  Level Indianapolis Center
Mon 10:31:16 PM 40.6294 -84.3992 225° Southwest 411 473 36,000  Level Indianapolis Center
Mon 10:32:16 PM 40.5494 -84.5047 224° Southwest 411 473 36,000  Level Indianapolis Center
Mon 10:33:16 PM 40.4758 -84.5994 225° Southwest 411 473 36,000  Level Indianapolis Center
Mon 10:34:16 PM 40.3978 -84.7017 225° Southwest 411 473 36,000  Level Indianapolis Center
Mon 10:35:16 PM 40.3153 -84.8092 223° Southwest 406 467 36,000  Level Indianapolis Center
Mon 10:36:16 PM 40.2267 -84.9192 225° Southwest 406 467 36,000  Level Indianapolis Center
Mon 10:37:16 PM 40.1439 -85.0261 226° Southwest 406 467 36,000  Level Indianapolis Center
Mon 10:38:16 PM 40.0656 -85.1331 222° Southwest 406 467 36,000  Level Indianapolis Center
Mon 10:39:16 PM 39.9828 -85.2314 214° Southwest 406 467 36,000  Level Indianapolis Center
Mon 10:40:16 PM 39.8900 -85.3131 214° Southwest 411 473 36,000  Level Indianapolis Center
Mon 10:41:16 PM 39.7947 -85.3972 215° Southwest 416 479 36,000  Level Indianapolis Center
Mon 10:42:16 PM 39.7039 -85.4811 214° Southwest 411 473 36,000  Level Indianapolis Center
Mon 10:43:16 PM 39.6086 -85.5647 219° Southwest 411 473 36,000  Level Indianapolis Center
Mon 10:44:16 PM 39.5322 -85.6461 226° Southwest 411 473 36,000  Level Indianapolis Center
Mon 10:45:16 PM 39.4531 -85.7539 227° Southwest 411 473 36,000  Level Indianapolis Center
Mon 10:46:16 PM 39.3781 -85.8592 226° Southwest 411 473 36,000  Level Indianapolis Center
Mon 10:47:16 PM 39.2989 -85.9639 227° Southwest 411 473 36,000  Level Indianapolis Center
Mon 10:48:16 PM 39.2153 -86.0789 226° Southwest 411 473 36,000  Level Indianapolis Center
Mon 10:49:16 PM 39.1378 -86.1833 225° Southwest 411 473 36,000  Level Indianapolis Center
Mon 10:50:16 PM 39.0561 -86.2900 225° Southwest 411 473 36,000  Level Indianapolis Center
Mon 10:51:16 PM 38.9786 -86.3914 226° Southwest 411 473 36,000  Level Indianapolis Center
Mon 10:52:16 PM 38.9031 -86.4925 229° Southwest 411 473 36,000  Level Indianapolis Center
Mon 10:53:16 PM 38.8317 -86.5961 225° Southwest 411 473 36,000  Level Indianapolis Center
Mon 10:54:16 PM 38.7519 -86.6967 226° Southwest 406 467 36,000  Level Indianapolis Center
Mon 10:55:16 PM 38.6761 -86.7972 226° Southwest 406 467 36,000  Level Indianapolis Center
Mon 10:56:16 PM 38.6003 -86.8975 227° Southwest 401 461 36,000  Level Indianapolis Center
Mon 10:57:16 PM 38.5244 -87.0000 227° Southwest 401 461 36,000  Level Indianapolis Center
Mon 10:58:16 PM 38.4483 -87.1025 221° Southwest 401 461 36,000  Level Indianapolis Center
Mon 10:59:16 PM 38.3686 -87.1914 229° Southwest 415 478 36,000  Level Indianapolis Center
Mon 11:00:16 PM 38.2942 -87.2989 225° Southwest 415 478 36,000  Level Indianapolis Center
Mon 11:01:16 PM 38.2158 -87.3981 225° Southwest 410 472 36,000  Level Indianapolis Center
Mon 11:02:16 PM 38.1375 -87.4969 225° Southwest 404 465 36,000  Level Indianapolis Center
Mon 11:03:16 PM 38.0592 -87.5956 225° Southwest 404 465 36,000  Level Indianapolis Center
Mon 11:04:16 PM 37.9806 -87.6967 212° Southwest 404 465 36,000  Level Indianapolis Center
Mon 11:06:44 PM 37.7467 -87.8842 205° Southwest 401 461 36,000  Level Memphis Center
Mon 11:08:44 PM 37.5408 -88.0058 206° Southwest 412 474 36,000  Level Memphis Center
Mon 11:09:44 PM 37.4400 -88.0689 204° Southwest 412 474 36,000  Level Memphis Center
Mon 11:10:44 PM 37.3347 -88.1292 205° Southwest 412 474 36,000 -250 Level Memphis Center
Mon 11:13:44 PM 37.0233 -88.3147 206° Southwest 418 481 35,000 -249 Descending Memphis Center
Mon 11:14:45 PM 36.9203 -88.3769 203° Southwest 423 487 35,000  Level Memphis Center
Mon 11:15:45 PM 36.8147 -88.4339 206° Southwest 423 487 35,000  Level Memphis Center
Mon 11:18:45 PM 36.5050 -88.6194 205° Southwest 418 481 35,000 -25 Level Memphis Center
Mon 11:19:44 PM 36.3975 -88.6811 204° Southwest 418 481 34,900 -1,462 Descending Memphis Center
Mon 11:20:44 PM 36.2836 -88.7453 206° Southwest 418 481 32,100 -2,600 Descending Memphis Center
Mon 11:21:44 PM 36.1822 -88.8064 205° Southwest 418 481 29,700 -2,400 Descending Memphis Center
Mon 11:22:44 PM 36.0850 -88.8622 205° Southwest 407 468 27,300 -2,450 Descending Memphis Center
Mon 11:23:44 PM 35.9875 -88.9178 205° Southwest 402 463 24,800 -2,650 Descending Memphis Center
Mon 11:24:44 PM 35.8819 -88.9786 206° Southwest 402 463 22,000 -2,850 Descending Memphis Center
Mon 11:25:44 PM 35.7803 -89.0392 215° Southwest 408 470 19,100 -2,850 Descending Memphis Center
Mon 11:26:44 PM 35.6914 -89.1147 228° Southwest 408 470 16,300 -2,826 Descending Memphis Center
Mon 11:27:45 PM 35.6214 -89.2103 226° Southwest 393 452 13,400 -2,850 Descending Memphis Center
Mon 11:28:44 PM 35.5494 -89.3031 226° Southwest 383 441 10,600 -1,714 Descending Memphis Center
Mon 11:29:44 PM 35.4894 -89.3803 222° Southwest 370 426 10,000 -300 Descending Memphis Center
Mon 11:30:44 PM 35.4211 -89.4550 195° South 343 395 10,000 -645 Level Memphis Center
Mon 11:31:45 PM 35.3422 -89.4814 197° South 301 346 8,700 -1,488 Descending Memphis Center
Mon 11:32:45 PM 35.2653 -89.5103 197° South 296 341 7,000 -1,650 Descending Memphis Center
Mon 11:33:45 PM 35.1903 -89.5389 198° South 290 334 5,400 -1,261 Descending Memphis Center
Mon 11:34:44 PM 35.1175 -89.5675 209° Southwest 284 327 4,500 -850 Descending Memphis Center
Mon 11:35:45 PM 35.0572 -89.6089 261° West 258 297 3,700 -750 Descending Memphis Center
Mon 11:36:44 PM 35.0472 -89.6822 276° West 206 237 3,000 -350 Descending Memphis Center
Mon 11:37:45 PM 35.0539 -89.7558 272° West 216 249 3,000 -250 Level Memphis Center
Mon 11:38:44 PM 35.0564 -89.8269 273° West 216 249 2,500 -756 Descending Memphis Center
Mon 11:39:44 PM 35.0586 -89.8878 270° West 205 236 1,500 -843 Descending Memphis Center
Mon 11:40:45 PM 35.0589 -89.9333 270° West 166 191 800 -500 Descending Memphis Center
Mon 11:41:44 PM 35.0589 -89.9867 158° South 159 183 500 -305 Descending Memphis Center
Mon 11:49:32 PM 34.3061 -89.6246 339° North  Level FlightAware Approximate
Mon 11:50:32 PM 34.4027 -89.6707 338° Northwest  Level FlightAware Approximate
Mon 11:51:32 PM 34.4993 -89.7168 338° Northwest  Level FlightAware Approximate
Mon 11:52:32 PM 34.5958 -89.7631 304° West  Level FlightAware Approximate
Mon 11:53:32 PM 34.6527 -89.8672 348° North  Level FlightAware Approximate
Mon 11:54:32 PM 34.7544 -89.8926 349° North  Level FlightAware Approximate
Mon 11:55:32 PM 34.8558 -89.9156 347° North  Level FlightAware Approximate
Mon 11:56:32 PM 34.9565 -89.9446 347° North  Level FlightAware Approximate
Mon 11:57:32 PM 35.0333 -89.9667 318° Northwest  Level FlightAware Approximate
Mon 11:58:32 PM 35.1104 -90.0516 138° Southeast  Level Estimated
Mon 11:59:32 PM 35.0333 -89.9667 318° Northwest  Level FlightAware Approximate
Tue 12:00:32 AM 35.1104 -90.0516 138° Southeast  Level Estimated
Tue 12:01:32 AM 35.0333 -89.9667 318° Northwest  Level FlightAware Approximate
Tue 12:02:32 AM 35.1104 -90.0516 138° Southeast  Level Estimated
Tue 12:03:32 AM 35.0333 -89.9667 138° Southeast  Level FlightAware Approximate

Login

Don't have an account? Register now (free) for customized features, flight alerts, and more!